sensor_id;sensor_type;location;lat;lon;timestamp;P1;durP1;ratioP1;P2;durP2;ratioP2
19173;SDS011;9719;49.322;8.536;2023-01-28T00:04:01;2.80;;;2.60;;
19173;SDS011;9719;49.322;8.536;2023-01-28T00:09:03;2.90;;;2.70;;
19173;SDS011;9719;49.322;8.536;2023-01-28T00:14:06;3.00;;;2.80;;
19173;SDS011;9719;49.322;8.536;2023-01-28T00:19:08;2.90;;;2.70;;
19173;SDS011;9719;49.322;8.536;2023-01-28T00:24:10;2.67;;;2.50;;
19173;SDS011;9719;49.322;8.536;2023-01-28T00:29:13;3.03;;;2.83;;
19173;SDS011;9719;49.322;8.536;2023-01-28T00:34:15;2.83;;;2.63;;
19173;SDS011;9719;49.322;8.536;2023-01-28T00:39:17;2.78;;;2.58;;
19173;SDS011;9719;49.322;8.536;2023-01-28T00:44:20;3.10;;;2.90;;
19173;SDS011;9719;49.322;8.536;2023-01-28T00:49:21;2.33;;;2.23;;
19173;SDS011;9719;49.322;8.536;2023-01-28T00:54:23;2.70;;;2.50;;
19173;SDS011;9719;49.322;8.536;2023-01-28T00:59:26;2.50;;;2.30;;
19173;SDS011;9719;49.322;8.536;2023-01-28T01:04:28;2.20;;;2.10;;
19173;SDS011;9719;49.322;8.536;2023-01-28T01:09:31;2.10;;;2.00;;
19173;SDS011;9719;49.322;8.536;2023-01-28T01:14:34;2.10;;;2.00;;
19173;SDS011;9719;49.322;8.536;2023-01-28T01:19:36;2.47;;;2.27;;
19173;SDS011;9719;49.322;8.536;2023-01-28T01:24:38;2.93;;;2.73;;
19173;SDS011;9719;49.322;8.536;2023-01-28T01:29:41;3.50;;;3.30;;
19173;SDS011;9719;49.322;8.536;2023-01-28T01:34:43;3.30;;;3.10;;
19173;SDS011;9719;49.322;8.536;2023-01-28T01:39:45;3.33;;;3.13;;
19173;SDS011;9719;49.322;8.536;2023-01-28T01:44:53;3.73;;;3.43;;
19173;SDS011;9719;49.322;8.536;2023-01-28T01:49:57;3.90;;;3.60;;
19173;SDS011;9719;49.322;8.536;2023-01-28T01:55:03;3.83;;;3.53;;
19173;SDS011;9719;49.322;8.536;2023-01-28T02:00:13;3.10;;;2.90;;
19173;SDS011;9719;49.322;8.536;2023-01-28T02:05:16;3.53;;;3.23;;
19173;SDS011;9719;49.322;8.536;2023-01-28T02:10:20;3.03;;;2.80;;
19173;SDS011;9719;49.322;8.536;2023-01-28T02:15:24;3.10;;;2.90;;
19173;SDS011;9719;49.322;8.536;2023-01-28T02:20:31;4.20;;;3.87;;
19173;SDS011;9719;49.322;8.536;2023-01-28T02:31:22;3.87;;;3.57;;
19173;SDS011;9719;49.322;8.536;2023-01-28T02:36:29;3.73;;;3.43;;
19173;SDS011;9719;49.322;8.536;2023-01-28T02:41:37;4.37;;;3.50;;
19173;SDS011;9719;49.322;8.536;2023-01-28T02:46:50;3.00;;;2.80;;
19173;SDS011;9719;49.322;8.536;2023-01-28T02:52:17;3.83;;;3.27;;
19173;SDS011;9719;49.322;8.536;2023-01-28T02:57:52;4.77;;;4.37;;
19173;SDS011;9719;49.322;8.536;2023-01-28T03:03:03;3.47;;;3.17;;
19173;SDS011;9719;49.322;8.536;2023-01-28T03:08:15;3.63;;;3.07;;
19173;SDS011;9719;49.322;8.536;2023-01-28T03:13:35;2.93;;;2.73;;
19173;SDS011;9719;49.322;8.536;2023-01-28T03:18:57;3.87;;;3.63;;
19173;SDS011;9719;49.322;8.536;2023-01-28T03:24:19;3.37;;;3.07;;
19173;SDS011;9719;49.322;8.536;2023-01-28T03:29:41;3.27;;;2.97;;
19173;SDS011;9719;49.322;8.536;2023-01-28T03:35:05;2.80;;;2.60;;
19173;SDS011;9719;49.322;8.536;2023-01-28T03:40:28;3.43;;;2.63;;
19173;SDS011;9719;49.322;8.536;2023-01-28T03:45:30;2.40;;;2.30;;
19173;SDS011;9719;49.322;8.536;2023-01-28T03:50:33;2.40;;;2.30;;
19173;SDS011;9719;49.322;8.536;2023-01-28T03:55:34;3.00;;;2.80;;
19173;SDS011;9719;49.322;8.536;2023-01-28T04:00:36;2.60;;;2.50;;
19173;SDS011;9719;49.322;8.536;2023-01-28T04:05:42;3.47;;;3.27;;
19173;SDS011;9719;49.322;8.536;2023-01-28T04:10:45;2.60;;;2.40;;
19173;SDS011;9719;49.322;8.536;2023-01-28T04:15:47;2.27;;;2.17;;
19173;SDS011;9719;49.322;8.536;2023-01-28T04:20:50;2.70;;;2.50;;
19173;SDS011;9719;49.322;8.536;2023-01-28T04:25:52;2.80;;;2.60;;
19173;SDS011;9719;49.322;8.536;2023-01-28T04:30:54;2.80;;;2.60;;
19173;SDS011;9719;49.322;8.536;2023-01-28T04:35:57;2.33;;;2.20;;
19173;SDS011;9719;49.322;8.536;2023-01-28T04:40:59;3.40;;;3.20;;
19173;SDS011;9719;49.322;8.536;2023-01-28T04:46:01;2.97;;;2.60;;
19173;SDS011;9719;49.322;8.536;2023-01-28T04:51:04;2.67;;;2.47;;
19173;SDS011;9719;49.322;8.536;2023-01-28T04:56:07;3.10;;;2.90;;
19173;SDS011;9719;49.322;8.536;2023-01-28T05:01:08;2.90;;;2.70;;
19173;SDS011;9719;49.322;8.536;2023-01-28T05:06:12;2.40;;;2.30;;
19173;SDS011;9719;49.322;8.536;2023-01-28T05:11:13;2.57;;;2.30;;
19173;SDS011;9719;49.322;8.536;2023-01-28T05:16:15;2.63;;;2.43;;
19173;SDS011;9719;49.322;8.536;2023-01-28T05:21:19;2.83;;;2.37;;
19173;SDS011;9719;49.322;8.536;2023-01-28T05:26:20;3.83;;;3.57;;
19173;SDS011;9719;49.322;8.536;2023-01-28T05:31:22;3.10;;;2.90;;
19173;SDS011;9719;49.322;8.536;2023-01-28T05:36:25;2.60;;;2.40;;
19173;SDS011;9719;49.322;8.536;2023-01-28T05:41:27;2.80;;;2.57;;
19173;SDS011;9719;49.322;8.536;2023-01-28T05:46:29;3.47;;;3.17;;
19173;SDS011;9719;49.322;8.536;2023-01-28T05:51:32;2.70;;;2.53;;
19173;SDS011;9719;49.322;8.536;2023-01-28T05:56:34;3.00;;;2.90;;
19173;SDS011;9719;49.322;8.536;2023-01-28T06:01:36;2.60;;;2.40;;
19173;SDS011;9719;49.322;8.536;2023-01-28T06:06:39;2.77;;;2.57;;
19173;SDS011;9719;49.322;8.536;2023-01-28T06:11:41;2.30;;;2.20;;
19173;SDS011;9719;49.322;8.536;2023-01-28T06:16:44;2.67;;;2.20;;
19173;SDS011;9719;49.322;8.536;2023-01-28T06:21:47;2.27;;;2.17;;
19173;SDS011;9719;49.322;8.536;2023-01-28T06:26:49;2.60;;;2.40;;
19173;SDS011;9719;49.322;8.536;2023-01-28T06:31:50;2.07;;;1.97;;
19173;SDS011;9719;49.322;8.536;2023-01-28T06:36:54;2.03;;;1.93;;
19173;SDS011;9719;49.322;8.536;2023-01-28T06:41:56;2.60;;;2.50;;
19173;SDS011;9719;49.322;8.536;2023-01-28T06:46:58;2.50;;;2.30;;
19173;SDS011;9719;49.322;8.536;2023-01-28T06:52:01;2.70;;;2.50;;
19173;SDS011;9719;49.322;8.536;2023-01-28T06:57:03;2.50;;;2.40;;
19173;SDS011;9719;49.322;8.536;2023-01-28T07:02:05;3.93;;;3.60;;
19173;SDS011;9719;49.322;8.536;2023-01-28T07:07:08;2.97;;;2.77;;
19173;SDS011;9719;49.322;8.536;2023-01-28T07:12:10;3.30;;;3.10;;
19173;SDS011;9719;49.322;8.536;2023-01-28T07:17:12;3.00;;;2.80;;
19173;SDS011;9719;49.322;8.536;2023-01-28T07:22:15;3.50;;;2.60;;
19173;SDS011;9719;49.322;8.536;2023-01-28T07:27:17;3.53;;;2.97;;
19173;SDS011;9719;49.322;8.536;2023-01-28T07:32:19;2.80;;;2.50;;
19173;SDS011;9719;49.322;8.536;2023-01-28T07:37:22;2.87;;;2.67;;
19173;SDS011;9719;49.322;8.536;2023-01-28T07:42:24;3.27;;;3.07;;
19173;SDS011;9719;49.322;8.536;2023-01-28T07:47:25;3.73;;;3.43;;
19173;SDS011;9719;49.322;8.536;2023-01-28T07:52:28;3.37;;;3.03;;
19173;SDS011;9719;49.322;8.536;2023-01-28T07:57:33;3.10;;;2.90;;
19173;SDS011;9719;49.322;8.536;2023-01-28T08:02:35;3.23;;;2.93;;
19173;SDS011;9719;49.322;8.536;2023-01-28T08:07:38;4.33;;;3.73;;
19173;SDS011;9719;49.322;8.536;2023-01-28T08:12:40;3.87;;;3.00;;
19173;SDS011;9719;49.322;8.536;2023-01-28T08:17:42;3.57;;;3.27;;
19173;SDS011;9719;49.322;8.536;2023-01-28T08:22:45;3.80;;;3.50;;
19173;SDS011;9719;49.322;8.536;2023-01-28T08:27:47;3.73;;;3.43;;
19173;SDS011;9719;49.322;8.536;2023-01-28T08:32:48;3.60;;;3.40;;
19173;SDS011;9719;49.322;8.536;2023-01-28T08:37:52;4.03;;;3.50;;
19173;SDS011;9719;49.322;8.536;2023-01-28T08:42:54;3.43;;;3.13;;
19173;SDS011;9719;49.322;8.536;2023-01-28T08:47:57;10.10;;;4.17;;
19173;SDS011;9719;49.322;8.536;2023-01-28T08:53:05;4.30;;;3.90;;
19173;SDS011;9719;49.322;8.536;2023-01-28T08:58:10;4.47;;;3.33;;
19173;SDS011;9719;49.322;8.536;2023-01-28T09:03:14;4.10;;;3.60;;
19173;SDS011;9719;49.322;8.536;2023-01-28T09:08:18;4.33;;;3.57;;
19173;SDS011;9719;49.322;8.536;2023-01-28T09:13:20;4.60;;;4.20;;
19173;SDS011;9719;49.322;8.536;2023-01-28T09:18:22;3.87;;;3.57;;
19173;SDS011;9719;49.322;8.536;2023-01-28T09:23:25;3.73;;;3.43;;
19173;SDS011;9719;49.322;8.536;2023-01-28T09:28:27;4.03;;;3.73;;
19173;SDS011;9719;49.322;8.536;2023-01-28T09:33:29;4.47;;;4.03;;
19173;SDS011;9719;49.322;8.536;2023-01-28T09:38:33;3.83;;;3.53;;
19173;SDS011;9719;49.322;8.536;2023-01-28T09:43:39;3.60;;;3.30;;
19173;SDS011;9719;49.322;8.536;2023-01-28T09:48:49;4.00;;;3.60;;
19173;SDS011;9719;49.322;8.536;2023-01-28T09:53:54;3.45;;;3.25;;
19173;SDS011;9719;49.322;8.536;2023-01-28T09:58:58;3.30;;;3.00;;
19173;SDS011;9719;49.322;8.536;2023-01-28T10:04:23;3.65;;;3.35;;
19173;SDS011;9719;49.322;8.536;2023-01-28T10:09:38;4.03;;;3.73;;
19173;SDS011;9719;49.322;8.536;2023-01-28T10:14:55;2.92;;;2.72;;
19173;SDS011;9719;49.322;8.536;2023-01-28T10:20:14;3.50;;;3.20;;
19173;SDS011;9719;49.322;8.536;2023-01-28T10:25:23;2.78;;;2.55;;
19173;SDS011;9719;49.322;8.536;2023-01-28T10:30:30;3.70;;;3.40;;
19173;SDS011;9719;49.322;8.536;2023-01-28T10:35:34;3.03;;;2.83;;
19173;SDS011;9719;49.322;8.536;2023-01-28T10:40:41;3.05;;;2.78;;
19173;SDS011;9719;49.322;8.536;2023-01-28T10:45:46;2.40;;;2.20;;
19173;SDS011;9719;49.322;8.536;2023-01-28T10:50:57;3.33;;;2.70;;
19173;SDS011;9719;49.322;8.536;2023-01-28T10:56:02;3.90;;;3.03;;
19173;SDS011;9719;49.322;8.536;2023-01-28T11:01:06;2.97;;;2.67;;
19173;SDS011;9719;49.322;8.536;2023-01-28T11:06:08;2.63;;;2.45;;
19173;SDS011;9719;49.322;8.536;2023-01-28T11:11:27;2.95;;;2.53;;
19173;SDS011;9719;49.322;8.536;2023-01-28T11:16:29;2.97;;;2.70;;
19173;SDS011;9719;49.322;8.536;2023-01-28T11:21:31;3.10;;;2.90;;
19173;SDS011;9719;49.322;8.536;2023-01-28T11:26:36;2.33;;;2.23;;
19173;SDS011;9719;49.322;8.536;2023-01-28T11:31:43;3.53;;;3.33;;
19173;SDS011;9719;49.322;8.536;2023-01-28T11:36:49;2.90;;;2.67;;
19173;SDS011;9719;49.322;8.536;2023-01-28T11:41:53;3.47;;;2.67;;
19173;SDS011;9719;49.322;8.536;2023-01-28T11:46:59;3.13;;;2.73;;
19173;SDS011;9719;49.322;8.536;2023-01-28T11:52:25;3.45;;;3.13;;
19173;SDS011;9719;49.322;8.536;2023-01-28T11:57:43;3.47;;;2.58;;
19173;SDS011;9719;49.322;8.536;2023-01-28T12:03:02;4.40;;;3.03;;
19173;SDS011;9719;49.322;8.536;2023-01-28T12:08:24;3.03;;;2.67;;
19173;SDS011;9719;49.322;8.536;2023-01-28T12:13:45;2.80;;;2.60;;
19173;SDS011;9719;49.322;8.536;2023-01-28T12:19:08;3.08;;;2.85;;
19173;SDS011;9719;49.322;8.536;2023-01-28T12:24:36;2.72;;;2.40;;
19173;SDS011;9719;49.322;8.536;2023-01-28T12:29:46;2.70;;;2.50;;
19173;SDS011;9719;49.322;8.536;2023-01-28T12:35:04;2.72;;;2.53;;
19173;SDS011;9719;49.322;8.536;2023-01-28T12:40:21;2.63;;;2.33;;
19173;SDS011;9719;49.322;8.536;2023-01-28T12:45:47;2.80;;;2.60;;
19173;SDS011;9719;49.322;8.536;2023-01-28T12:50:53;2.22;;;2.05;;
19173;SDS011;9719;49.322;8.536;2023-01-28T12:56:02;2.53;;;2.33;;
19173;SDS011;9719;49.322;8.536;2023-01-28T13:01:11;3.97;;;3.53;;
19173;SDS011;9719;49.322;8.536;2023-01-28T13:06:18;2.55;;;2.35;;
19173;SDS011;9719;49.322;8.536;2023-01-28T13:11:24;2.78;;;2.58;;
19173;SDS011;9719;49.322;8.536;2023-01-28T13:16:36;3.10;;;2.83;;
19173;SDS011;9719;49.322;8.536;2023-01-28T13:21:38;2.58;;;2.38;;
19173;SDS011;9719;49.322;8.536;2023-01-28T13:26:40;3.50;;;3.20;;
19173;SDS011;9719;49.322;8.536;2023-01-28T13:31:45;3.40;;;2.40;;
19173;SDS011;9719;49.322;8.536;2023-01-28T13:36:48;2.67;;;2.43;;
19173;SDS011;9719;49.322;8.536;2023-01-28T13:41:51;4.45;;;3.28;;
19173;SDS011;9719;49.322;8.536;2023-01-28T13:46:56;2.72;;;2.50;;
19173;SDS011;9719;49.322;8.536;2023-01-28T13:52:03;2.50;;;2.30;;
19173;SDS011;9719;49.322;8.536;2023-01-28T13:57:21;3.23;;;2.93;;
19173;SDS011;9719;49.322;8.536;2023-01-28T14:02:50;2.37;;;1.97;;
19173;SDS011;9719;49.322;8.536;2023-01-28T14:13:40;2.47;;;2.27;;
19173;SDS011;9719;49.322;8.536;2023-01-28T14:19:11;2.45;;;2.25;;
19173;SDS011;9719;49.322;8.536;2023-01-28T14:24:14;2.23;;;2.00;;
19173;SDS011;9719;49.322;8.536;2023-01-28T14:29:21;2.97;;;2.30;;
19173;SDS011;9719;49.322;8.536;2023-01-28T14:34:34;3.07;;;2.40;;
19173;SDS011;9719;49.322;8.536;2023-01-28T14:39:39;2.47;;;2.27;;
19173;SDS011;9719;49.322;8.536;2023-01-28T14:44:45;3.00;;;2.70;;
19173;SDS011;9719;49.322;8.536;2023-01-28T14:49:58;2.40;;;2.30;;
19173;SDS011;9719;49.322;8.536;2023-01-28T14:55:13;2.90;;;2.40;;
19173;SDS011;9719;49.322;8.536;2023-01-28T15:00:26;2.50;;;2.30;;
19173;SDS011;9719;49.322;8.536;2023-01-28T15:05:31;2.37;;;2.17;;
19173;SDS011;9719;49.322;8.536;2023-01-28T15:10:34;2.30;;;2.20;;
19173;SDS011;9719;49.322;8.536;2023-01-28T15:15:38;3.13;;;2.67;;
19173;SDS011;9719;49.322;8.536;2023-01-28T15:20:43;2.43;;;2.27;;
19173;SDS011;9719;49.322;8.536;2023-01-28T15:25:47;2.73;;;2.53;;
19173;SDS011;9719;49.322;8.536;2023-01-28T15:30:48;2.87;;;2.67;;
19173;SDS011;9719;49.322;8.536;2023-01-28T15:35:52;3.97;;;3.37;;
19173;SDS011;9719;49.322;8.536;2023-01-28T15:40:55;3.20;;;2.73;;
19173;SDS011;9719;49.322;8.536;2023-01-28T15:46:00;3.37;;;3.17;;
19173;SDS011;9719;49.322;8.536;2023-01-28T15:51:04;2.90;;;2.67;;
19173;SDS011;9719;49.322;8.536;2023-01-28T15:56:08;2.73;;;2.53;;
19173;SDS011;9719;49.322;8.536;2023-01-28T16:01:15;3.83;;;3.37;;
19173;SDS011;9719;49.322;8.536;2023-01-28T16:06:20;4.13;;;2.90;;
19173;SDS011;9719;49.322;8.536;2023-01-28T16:11:23;3.90;;;3.53;;
19173;SDS011;9719;49.322;8.536;2023-01-28T16:16:30;2.60;;;2.50;;
19173;SDS011;9719;49.322;8.536;2023-01-28T16:21:36;3.70;;;2.90;;
19173;SDS011;9719;49.322;8.536;2023-01-28T16:26:43;3.30;;;3.10;;
19173;SDS011;9719;49.322;8.536;2023-01-28T16:31:56;3.53;;;3.27;;
19173;SDS011;9719;49.322;8.536;2023-01-28T16:37:01;3.43;;;3.13;;
19173;SDS011;9719;49.322;8.536;2023-01-28T16:42:09;3.10;;;2.90;;
19173;SDS011;9719;49.322;8.536;2023-01-28T16:47:10;3.40;;;3.10;;
19173;SDS011;9719;49.322;8.536;2023-01-28T16:52:13;4.00;;;3.70;;
19173;SDS011;9719;49.322;8.536;2023-01-28T16:57:17;3.70;;;3.00;;
19173;SDS011;9719;49.322;8.536;2023-01-28T17:02:22;4.63;;;4.23;;
19173;SDS011;9719;49.322;8.536;2023-01-28T17:07:25;3.80;;;3.50;;
19173;SDS011;9719;49.322;8.536;2023-01-28T17:12:27;3.80;;;3.50;;
19173;SDS011;9719;49.322;8.536;2023-01-28T17:17:28;5.43;;;4.93;;
19173;SDS011;9719;49.322;8.536;2023-01-28T17:22:34;5.43;;;4.77;;
19173;SDS011;9719;49.322;8.536;2023-01-28T17:27:36;4.43;;;4.10;;
19173;SDS011;9719;49.322;8.536;2023-01-28T17:32:38;3.83;;;3.53;;
19173;SDS011;9719;49.322;8.536;2023-01-28T17:37:41;4.27;;;3.97;;
19173;SDS011;9719;49.322;8.536;2023-01-28T17:42:43;3.73;;;3.43;;
19173;SDS011;9719;49.322;8.536;2023-01-28T17:47:44;3.90;;;3.60;;
19173;SDS011;9719;49.322;8.536;2023-01-28T17:52:49;4.10;;;3.60;;
19173;SDS011;9719;49.322;8.536;2023-01-28T17:57:54;4.23;;;3.83;;
19173;SDS011;9719;49.322;8.536;2023-01-28T18:02:55;4.03;;;3.70;;
19173;SDS011;9719;49.322;8.536;2023-01-28T18:07:59;3.80;;;3.50;;
19173;SDS011;9719;49.322;8.536;2023-01-28T18:13:00;4.13;;;3.73;;
19173;SDS011;9719;49.322;8.536;2023-01-28T18:18:02;4.80;;;3.50;;
19173;SDS011;9719;49.322;8.536;2023-01-28T18:23:06;4.53;;;4.13;;
19173;SDS011;9719;49.322;8.536;2023-01-28T18:28:08;5.07;;;4.63;;
19173;SDS011;9719;49.322;8.536;2023-01-28T18:33:09;8.33;;;7.60;;
19173;SDS011;9719;49.322;8.536;2023-01-28T18:38:13;12.10;;;9.63;;
19173;SDS011;9719;49.322;8.536;2023-01-28T18:43:17;7.00;;;6.30;;
19173;SDS011;9719;49.322;8.536;2023-01-28T18:48:19;6.60;;;5.87;;
19173;SDS011;9719;49.322;8.536;2023-01-28T18:53:24;4.90;;;4.40;;
19173;SDS011;9719;49.322;8.536;2023-01-28T18:58:26;4.70;;;4.13;;
19173;SDS011;9719;49.322;8.536;2023-01-28T19:03:28;5.57;;;5.13;;
19173;SDS011;9719;49.322;8.536;2023-01-28T19:08:32;4.23;;;3.87;;
19173;SDS011;9719;49.322;8.536;2023-01-28T19:13:34;5.93;;;3.80;;
19173;SDS011;9719;49.322;8.536;2023-01-28T19:18:36;3.73;;;3.43;;
19173;SDS011;9719;49.322;8.536;2023-01-28T19:23:39;3.20;;;3.00;;
19173;SDS011;9719;49.322;8.536;2023-01-28T19:28:41;3.90;;;3.50;;
19173;SDS011;9719;49.322;8.536;2023-01-28T19:33:43;4.57;;;4.17;;
19173;SDS011;9719;49.322;8.536;2023-01-28T19:38:46;4.63;;;3.63;;
19173;SDS011;9719;49.322;8.536;2023-01-28T19:43:48;4.60;;;4.20;;
19173;SDS011;9719;49.322;8.536;2023-01-28T19:48:49;4.50;;;4.10;;
19173;SDS011;9719;49.322;8.536;2023-01-28T19:53:53;4.70;;;4.40;;
19173;SDS011;9719;49.322;8.536;2023-01-28T19:58:55;4.30;;;3.90;;
19173;SDS011;9719;49.322;8.536;2023-01-28T20:03:58;4.97;;;4.00;;
19173;SDS011;9719;49.322;8.536;2023-01-28T20:09:03;4.37;;;4.03;;
19173;SDS011;9719;49.322;8.536;2023-01-28T20:14:07;5.23;;;4.07;;
19173;SDS011;9719;49.322;8.536;2023-01-28T20:19:11;4.00;;;3.63;;
19173;SDS011;9719;49.322;8.536;2023-01-28T20:24:16;3.83;;;3.53;;
19173;SDS011;9719;49.322;8.536;2023-01-28T20:29:18;3.73;;;3.53;;
19173;SDS011;9719;49.322;8.536;2023-01-28T20:34:21;4.50;;;4.20;;
19173;SDS011;9719;49.322;8.536;2023-01-28T20:39:24;4.10;;;3.70;;
19173;SDS011;9719;49.322;8.536;2023-01-28T20:44:26;3.83;;;3.53;;
19173;SDS011;9719;49.322;8.536;2023-01-28T20:49:31;4.03;;;3.70;;
19173;SDS011;9719;49.322;8.536;2023-01-28T20:54:34;4.33;;;4.00;;
19173;SDS011;9719;49.322;8.536;2023-01-28T20:59:35;4.53;;;3.93;;
19173;SDS011;9719;49.322;8.536;2023-01-28T21:04:37;4.53;;;4.13;;
19173;SDS011;9719;49.322;8.536;2023-01-28T21:09:41;6.80;;;4.10;;
19173;SDS011;9719;49.322;8.536;2023-01-28T21:14:42;4.23;;;3.90;;
19173;SDS011;9719;49.322;8.536;2023-01-28T21:19:44;4.53;;;4.23;;
19173;SDS011;9719;49.322;8.536;2023-01-28T21:24:47;4.50;;;4.20;;
19173;SDS011;9719;49.322;8.536;2023-01-28T21:29:50;3.63;;;3.33;;
19173;SDS011;9719;49.322;8.536;2023-01-28T21:34:51;4.50;;;4.10;;
19173;SDS011;9719;49.322;8.536;2023-01-28T21:39:55;4.00;;;3.70;;
19173;SDS011;9719;49.322;8.536;2023-01-28T21:44:56;4.37;;;4.00;;
19173;SDS011;9719;49.322;8.536;2023-01-28T21:49:58;4.90;;;4.40;;
19173;SDS011;9719;49.322;8.536;2023-01-28T21:55:02;3.87;;;3.57;;
19173;SDS011;9719;49.322;8.536;2023-01-28T22:00:04;4.00;;;3.80;;
19173;SDS011;9719;49.322;8.536;2023-01-28T22:05:08;4.77;;;4.37;;
19173;SDS011;9719;49.322;8.536;2023-01-28T22:10:11;5.33;;;4.30;;
19173;SDS011;9719;49.322;8.536;2023-01-28T22:15:13;4.40;;;4.00;;
19173;SDS011;9719;49.322;8.536;2023-01-28T22:20:15;4.40;;;4.03;;
19173;SDS011;9719;49.322;8.536;2023-01-28T22:25:18;7.47;;;4.10;;
19173;SDS011;9719;49.322;8.536;2023-01-28T22:30:20;5.60;;;5.10;;
19173;SDS011;9719;49.322;8.536;2023-01-28T22:35:22;5.13;;;3.80;;
19173;SDS011;9719;49.322;8.536;2023-01-28T22:40:25;4.73;;;4.33;;
19173;SDS011;9719;49.322;8.536;2023-01-28T22:45:27;4.83;;;3.97;;
19173;SDS011;9719;49.322;8.536;2023-01-28T22:50:29;4.97;;;3.93;;
19173;SDS011;9719;49.322;8.536;2023-01-28T22:55:32;4.40;;;4.07;;
19173;SDS011;9719;49.322;8.536;2023-01-28T23:00:37;4.90;;;4.47;;
19173;SDS011;9719;49.322;8.536;2023-01-28T23:05:39;4.80;;;4.40;;
19173;SDS011;9719;49.322;8.536;2023-01-28T23:10:43;5.53;;;5.03;;
19173;SDS011;9719;49.322;8.536;2023-01-28T23:15:49;4.50;;;4.10;;
19173;SDS011;9719;49.322;8.536;2023-01-28T23:21:12;4.70;;;4.30;;
19173;SDS011;9719;49.322;8.536;2023-01-28T23:26:35;5.47;;;4.97;;
19173;SDS011;9719;49.322;8.536;2023-01-28T23:31:38;4.60;;;4.20;;
19173;SDS011;9719;49.322;8.536;2023-01-28T23:36:41;8.17;;;5.57;;
19173;SDS011;9719;49.322;8.536;2023-01-28T23:41:44;4.80;;;4.40;;
19173;SDS011;9719;49.322;8.536;2023-01-28T23:46:46;4.60;;;4.30;;
19173;SDS011;9719;49.322;8.536;2023-01-28T23:51:48;8.50;;;6.40;;
19173;SDS011;9719;49.322;8.536;2023-01-28T23:56:51;4.90;;;4.50;;
